Time;durP1;ratioP1;P1;durP2;ratioP2;P2;SDS_P1;SDS_P2;PMS_P1;PMS_P2;Temp;Humidity;BMP_temperature;BMP_pressure;BME280_temperature;BME280_humidity;BME280_pressure;Samples;Min_cycle;Max_cycle;Signal;HPM_P1;HPM_P2
2023/01/03 00:02:19;;;;;;;14.02;7.88;;;;;;;9.04;100.00;102438.56;5095108;28;20059;-51
2023/01/03 00:04:47;;;;;;;12.32;7.95;;;;;;;9.05;100.00;102440.25;5093564;28;20040;-50
2023/01/03 00:07:32;;;;;;;11.68;7.60;;;;;;;9.04;100.00;102439.41;5095474;28;20071;-51
2023/01/03 00:10:07;;;;;;;11.50;7.38;;;;;;;9.02;100.00;102435.22;5094403;28;20089;-47
2023/01/03 00:12:35;;;;;;;12.70;7.60;;;;;;;9.00;100.00;102440.06;5095115;28;20058;-48
2023/01/03 00:15:03;;;;;;;13.30;7.45;;;;;;;8.97;100.00;102444.03;5090580;28;20082;-50
2023/01/03 00:17:31;;;;;;;11.90;7.13;;;;;;;8.92;100.00;102442.00;5095317;28;20044;-49
2023/01/03 00:19:59;;;;;;;12.82;6.93;;;;;;;8.92;100.00;102436.56;5095134;28;20502;-47
2023/01/03 00:22:31;;;;;;;12.95;6.30;;;;;;;8.89;100.00;102436.97;5094794;28;20502;-49
2023/01/03 00:24:58;;;;;;;12.55;6.38;;;;;;;8.86;100.00;102447.47;5075495;28;20039;-49
2023/01/03 00:27:26;;;;;;;11.63;6.60;;;;;;;8.85;100.00;102441.19;5093819;28;20571;-48
2023/01/03 00:29:54;;;;;;;11.13;5.70;;;;;;;8.80;100.00;102443.69;5095159;28;20063;-47
2023/01/03 00:32:22;;;;;;;14.90;6.50;;;;;;;8.78;100.00;102443.09;5094774;28;20036;-49
2023/01/03 00:34:49;;;;;;;9.80;5.25;;;;;;;8.74;100.00;102439.16;5093923;28;20043;-49
2023/01/03 00:37:17;;;;;;;14.63;5.60;;;;;;;8.73;100.00;102446.47;5080833;28;20046;-49
2023/01/03 00:39:45;;;;;;;9.50;5.57;;;;;;;8.70;100.00;102440.63;5094129;28;20426;-47
2023/01/03 00:42:12;;;;;;;12.60;5.40;;;;;;;8.66;100.00;102436.66;5094632;28;20036;-50
2023/01/03 00:44:40;;;;;;;12.32;5.30;;;;;;;8.65;100.00;102445.88;5089136;28;20040;-47
2023/01/03 00:47:08;;;;;;;12.10;5.50;;;;;;;8.64;100.00;102447.75;5091730;28;20105;-48
2023/01/03 00:49:37;;;;;;;12.65;6.00;;;;;;;8.64;100.00;102438.78;5093424;28;20097;-51
2023/01/03 00:52:05;;;;;;;13.15;6.30;;;;;;;8.62;100.00;102446.31;5094126;28;20040;-48
2023/01/03 00:54:33;;;;;;;11.02;5.78;;;;;;;8.58;100.00;102454.03;5093713;28;20047;-48
2023/01/03 00:57:00;;;;;;;14.93;6.35;;;;;;;8.57;100.00;102448.84;5093556;28;20050;-48
2023/01/03 00:59:28;;;;;;;11.85;6.07;;;;;;;8.56;100.00;102444.44;5076636;28;20055;-49
2023/01/03 01:01:56;;;;;;;10.18;5.45;;;;;;;8.54;100.00;102450.09;5072303;28;20383;-46
2023/01/03 01:04:27;;;;;;;10.18;5.07;;;;;;;8.55;100.00;102461.81;5092917;28;20040;-47
2023/01/03 01:07:02;;;;;;;10.90;5.35;;;;;;;8.53;100.00;102457.41;5093848;28;20119;-51
2023/01/03 01:09:35;;;;;;;12.25;5.78;;;;;;;8.53;100.00;102460.09;5094929;28;20138;-50
2023/01/03 01:12:04;;;;;;;11.80;5.50;;;;;;;8.53;100.00;102467.44;5094871;28;20050;-52
2023/01/03 01:14:32;;;;;;;10.45;5.28;;;;;;;8.51;100.00;102467.66;5083231;28;20041;-47
2023/01/03 01:17:02;;;;;;;8.73;5.07;;;;;;;8.50;100.00;102470.59;5094169;28;20054;-52
2023/01/03 01:19:35;;;;;;;14.38;5.60;;;;;;;8.49;100.00;102466.19;5094591;28;20044;-49
2023/01/03 01:22:03;;;;;;;11.52;5.70;;;;;;;8.46;100.00;102475.59;5093940;28;20044;-49
2023/01/03 01:24:32;;;;;;;11.13;5.50;;;;;;;8.44;100.00;102482.28;5074943;28;20051;-49
2023/01/03 01:26:59;;;;;;;10.85;5.30;;;;;;;8.42;100.00;102479.81;5094207;28;20062;-49
2023/01/03 01:29:27;;;;;;;11.13;5.25;;;;;;;8.42;100.00;102490.66;5092859;28;20047;-47
2023/01/03 01:31:55;;;;;;;11.32;4.90;;;;;;;8.46;100.00;102494.59;5092523;28;20028;-48
2023/01/03 01:34:22;;;;;;;9.32;5.00;;;;;;;8.46;100.00;102491.91;5092979;28;20484;-50
2023/01/03 01:36:50;;;;;;;9.77;5.03;;;;;;;8.47;100.00;102496.28;5076048;28;20043;-49
2023/01/03 01:39:20;;;;;;;10.32;5.57;;;;;;;8.50;100.00;102506.72;5092715;28;20517;-48
2023/01/03 01:44:56;;;;;;;10.85;5.60;;;;;;;8.48;100.00;102511.53;5092656;28;20060;-50
2023/01/03 01:47:53;;;;;;;8.85;4.30;;;;;;;8.48;100.00;102516.97;5092250;28;20056;-46
2023/01/03 01:50:29;;;;;;;9.70;4.72;;;;;;;8.49;100.00;102513.22;5092632;28;20047;-49
2023/01/03 01:53:01;;;;;;;;;;;;;;;8.46;100.00;102508.19;5092335;28;20040;-46
2023/01/03 01:55:36;;;;;;;11.02;5.40;;;;;;;8.36;100.00;102518.63;5103102;28;19985;-46
2023/01/03 01:58:06;;;;;;;8.55;4.50;;;;;;;8.31;100.00;102515.72;5093650;28;20118;-49
2023/01/03 02:00:34;;;;;;;10.02;4.95;;;;;;;8.30;100.00;102516.78;5094433;28;20093;-49
2023/01/03 02:03:02;;;;;;;12.75;4.93;;;;;;;8.32;100.00;102520.09;5095657;28;20044;-49
2023/01/03 02:05:31;;;;;;;8.32;4.07;;;;;;;8.31;100.00;102518.44;5095511;28;20072;-49
2023/01/03 02:07:59;;;;;;;8.25;4.30;;;;;;;8.30;100.00;102524.94;5092960;28;20047;-49
2023/01/03 02:11:01;;;;;;;8.48;4.63;;;;;;;8.25;100.00;102516.56;5095623;28;20044;-49
2023/01/03 02:13:33;;;;;;;9.93;4.00;;;;;;;8.25;100.00;102522.84;5093209;28;20081;-49
2023/01/03 02:16:17;;;;;;;10.55;4.55;;;;;;;8.22;100.00;102525.13;5090993;28;20051;-46
2023/01/03 02:18:47;;;;;;;8.70;4.63;;;;;;;8.16;100.00;102525.97;5086753;28;20048;-46
2023/01/03 02:21:40;;;;;;;8.32;4.32;;;;;;;8.13;100.00;102518.22;5078438;28;20051;-50
2023/01/03 02:24:36;;;;;;;8.43;4.35;;;;;;;8.10;100.00;102520.34;5092933;28;20101;-49
2023/01/03 02:27:21;;;;;;;11.23;5.18;;;;;;;8.08;100.00;102527.88;5091773;28;20040;-49
2023/01/03 02:30:08;;;;;;;8.80;4.57;;;;;;;8.07;100.00;102526.19;5087968;28;20044;-51
2023/01/03 02:33:04;;;;;;;9.32;4.68;;;;;;;8.07;100.00;102511.78;5092160;28;20042;-51
2023/01/03 02:35:55;;;;;;;10.60;4.68;;;;;;;8.07;100.00;102518.03;5091754;28;20043;-48
2023/01/03 02:38:38;;;;;;;12.02;4.90;;;;;;;8.07;100.00;102517.19;5091746;28;20040;-50
2023/01/03 02:41:30;;;;;;;10.77;4.70;;;;;;;8.07;100.00;102514.50;5088521;28;20143;-47
2023/01/03 02:44:31;;;;;;;9.48;4.70;;;;;;;8.07;100.00;102515.31;5092955;28;20040;-48
2023/01/03 02:47:07;;;;;;;12.07;4.93;;;;;;;8.05;100.00;102519.28;5042893;28;20052;-50
2023/01/03 02:49:44;;;;;;;11.40;5.18;;;;;;;8.02;100.00;102520.53;5090543;28;20409;-51
2023/01/03 02:52:22;;;;;;;9.73;4.97;;;;;;;7.99;100.00;102518.25;5091615;28;20036;-47
2023/01/03 02:55:25;;;;;;;11.50;4.70;;;;;;;7.95;99.96;102521.59;5084358;28;20045;-48
2023/01/03 02:57:59;;;;;;;12.25;4.80;;;;;;;7.93;100.00;102515.53;5082060;28;20086;-50
2023/01/03 03:00:30;;;;;;;9.23;5.00;;;;;;;7.90;100.00;102517.63;5091039;28;20090;-46
2023/01/03 03:03:00;;;;;;;8.52;4.15;;;;;;;7.89;100.00;102518.69;5092559;28;20051;-46
2023/01/03 03:05:44;;;;;;;8.15;4.40;;;;;;;7.85;100.00;102511.16;5091630;28;20044;-47
2023/01/03 03:08:12;;;;;;;12.68;5.07;;;;;;;7.83;100.00;102515.94;5092288;28;20044;-47
2023/01/03 03:13:37;;;;;;;8.13;4.15;;;;;;;7.81;100.00;102509.88;5075135;28;20036;-50
2023/01/03 03:16:11;;;;;;;14.70;6.20;;;;;;;7.78;100.00;102510.31;5090171;28;20044;-50
2023/01/03 03:18:58;;;;;;;11.90;5.10;;;;;;;7.76;100.00;102509.69;5090447;28;20037;-49
2023/01/03 03:30:01;;;;;;;10.05;4.93;;;;;;;7.72;100.00;102511.13;5090268;28;20119;-48
2023/01/03 03:32:30;;;;;;;13.50;4.88;;;;;;;7.68;100.00;102508.84;5090974;28;20371;-47
2023/01/03 03:35:02;;;;;;;7.95;4.70;;;;;;;7.64;99.88;102518.44;5091311;28;20044;-48
2023/01/03 03:37:32;;;;;;;8.88;5.03;;;;;;;7.63;99.90;102516.78;5091677;28;20482;-48
2023/01/03 03:45:45;;;;;;;10.18;4.55;;;;;;;7.58;100.00;102508.41;5094481;28;20426;-49
2023/01/03 03:51:30;;;;;;;8.18;4.47;;;;;;;7.62;100.00;102512.38;5093731;28;20500;-48
2023/01/03 03:54:01;;;;;;;9.15;3.83;;;;;;;7.67;100.00;102504.47;5093712;28;20043;-49
2023/01/03 03:56:32;;;;;;;9.15;4.38;;;;;;;7.61;100.00;102512.59;5093929;28;20036;-49
2023/01/03 03:59:04;;;;;;;9.88;4.80;;;;;;;7.53;100.00;102508.22;5093534;28;20036;-48
2023/01/03 04:01:33;;;;;;;10.18;4.93;;;;;;;7.48;100.00;102513.41;5094443;28;20040;-50
2023/01/03 04:04:08;;;;;;;9.20;4.30;;;;;;;7.44;100.00;102523.81;5093735;28;20407;-47
2023/01/03 04:06:46;;;;;;;11.25;4.82;;;;;;;7.42;100.00;102516.94;5094955;28;20379;-47
2023/01/03 04:09:14;;;;;;;12.65;5.03;;;;;;;7.41;100.00;102526.13;5092568;28;20056;-48
2023/01/03 04:11:42;;;;;;;12.13;5.55;;;;;;;7.35;100.00;102535.06;5094327;28;20040;-47
2023/01/03 04:14:10;;;;;;;13.23;5.38;;;;;;;7.30;100.00;102540.28;5095593;28;20048;-48
2023/01/03 04:16:39;;;;;;;11.27;4.78;;;;;;;7.24;100.00;102537.34;5094302;28;20379;-48
2023/01/03 04:19:08;;;;;;;13.40;5.20;;;;;;;7.25;100.00;102533.56;5085595;28;20040;-47
2023/01/03 04:21:36;;;;;;;13.90;5.30;;;;;;;7.28;100.00;102531.50;5093959;28;20036;-49
2023/01/03 04:24:05;;;;;;;11.10;5.30;;;;;;;7.29;100.00;102533.16;5095467;28;20123;-49
2023/01/03 04:26:32;;;;;;;9.70;4.65;;;;;;;7.29;100.00;102539.44;5093565;28;20050;-48
2023/01/03 04:29:00;;;;;;;10.77;5.50;;;;;;;7.33;100.00;102534.44;5094973;28;20047;-46
2023/01/03 04:31:28;;;;;;;9.80;4.80;;;;;;;7.31;100.00;102531.06;5094269;28;20051;-47
2023/01/03 04:33:55;;;;;;;9.60;4.75;;;;;;;7.34;100.00;102533.41;5094372;28;20036;-49
2023/01/03 04:36:23;;;;;;;12.40;4.90;;;;;;;7.37;100.00;102527.56;5095000;28;20044;-48
2023/01/03 04:38:50;;;;;;;9.77;4.45;;;;;;;7.37;99.90;102535.69;5094998;28;20036;-50
2023/01/03 04:41:18;;;;;;;8.32;4.43;;;;;;;7.36;99.82;102539.44;5093830;28;20052;-48
2023/01/03 04:44:01;;;;;;;8.75;4.85;;;;;;;7.32;99.98;102539.03;5094513;28;20040;-49
2023/01/03 04:46:29;;;;;;;10.38;4.80;;;;;;;7.29;99.35;102539.44;5093635;28;20071;-47
2023/01/03 04:48:57;;;;;;;15.10;5.07;;;;;;;7.27;98.89;102546.09;5094547;28;20149;-48
2023/01/03 04:51:25;;;;;;;9.07;5.10;;;;;;;7.21;99.19;102540.44;5092786;28;20043;-50
2023/01/03 04:53:52;;;;;;;10.45;4.68;;;;;;;7.16;99.95;102529.38;5074404;28;20044;-48
2023/01/03 04:56:28;;;;;;;12.65;5.05;;;;;;;7.12;99.77;102528.13;5094275;28;20054;-50
2023/01/03 04:58:56;;;;;;;10.80;4.93;;;;;;;7.08;99.33;102526.84;5094663;28;20041;-48
2023/01/03 05:01:24;;;;;;;9.73;4.75;;;;;;;7.06;100.00;102528.09;5089070;28;20045;-51
2023/01/03 05:03:59;;;;;;;12.07;4.90;;;;;;;7.01;99.92;102526.81;5087275;28;20037;-50
2023/01/03 05:06:27;;;;;;;11.27;5.10;;;;;;;7.00;99.69;102536.00;5078703;28;20046;-49
2023/01/03 05:08:55;;;;;;;9.80;5.10;;;;;;;7.06;100.00;102530.78;5093265;28;20044;-51
2023/01/03 05:11:23;;;;;;;11.32;4.70;;;;;;;7.07;100.00;102530.59;5095312;28;20047;-49
2023/01/03 05:13:50;;;;;;;11.13;5.68;;;;;;;7.09;100.00;102524.97;5094118;28;20119;-47
2023/01/03 05:16:18;;;;;;;10.27;4.75;;;;;;;7.11;100.00;102526.44;5092803;28;20040;-46
2023/01/03 05:18:47;;;;;;;11.45;5.32;;;;;;;7.11;99.72;102523.72;5086219;28;20064;-48
2023/01/03 05:26:52;;;;;;;9.73;5.35;;;;;;;7.07;100.00;102527.91;5092540;28;20513;-50
2023/01/03 05:29:20;;;;;;;12.70;5.93;;;;;;;7.06;100.00;102528.91;5091250;28;20379;-49
2023/01/03 05:31:48;;;;;;;10.30;5.40;;;;;;;7.08;100.00;102526.84;5092724;28;20067;-49
2023/01/03 05:34:16;;;;;;;19.88;6.05;;;;;;;7.09;100.00;102520.38;5092471;28;20431;-49
2023/01/03 05:36:44;;;;;;;10.50;5.40;;;;;;;7.14;100.00;102514.34;5093629;28;20039;-48
2023/01/03 05:39:11;;;;;;;12.82;5.70;;;;;;;7.15;100.00;102508.72;5093329;28;20040;-49
2023/01/03 05:44:32;;;;;;;11.68;5.68;;;;;;;7.10;100.00;102508.50;5093921;28;20051;-46
2023/01/03 05:47:02;;;;;;;11.52;5.32;;;;;;;7.04;100.00;102510.13;5093285;28;20044;-51
2023/01/03 05:49:29;;;;;;;10.15;5.38;;;;;;;7.02;100.00;102519.50;5092977;28;20036;-50
2023/01/03 05:51:57;;;;;;;10.77;5.63;;;;;;;7.06;100.00;102517.25;5092371;28;20082;-47
2023/01/03 05:54:25;;;;;;;12.45;5.93;;;;;;;7.02;100.00;102519.50;5093134;28;20044;-46
2023/01/03 05:56:53;;;;;;;11.60;5.32;;;;;;;7.01;100.00;102524.09;5094559;28;20044;-46
2023/01/03 05:59:21;;;;;;;9.60;5.10;;;;;;;7.03;100.00;102507.66;5093565;28;20047;-46
2023/01/03 06:01:49;;;;;;;11.70;5.97;;;;;;;7.00;100.00;102514.31;5091335;28;20044;-46
2023/01/03 06:04:17;;;;;;;14.18;5.80;;;;;;;6.87;100.00;102508.00;5089233;28;20257;-49
2023/01/03 06:06:47;;;;;;;11.35;5.95;;;;;;;6.82;100.00;102506.72;5087584;28;20052;-49
2023/01/03 06:09:14;;;;;;;11.77;6.22;;;;;;;6.76;100.00;102496.69;5091767;28;20024;-47
2023/01/03 06:11:42;;;;;;;12.32;6.05;;;;;;;6.71;100.00;102503.72;5091229;28;20039;-46
2023/01/03 06:14:10;;;;;;;9.93;4.88;;;;;;;6.74;100.00;102512.31;5093388;28;20044;-47
2023/01/03 06:19:23;;;;;;;14.75;6.05;;;;;;;6.83;100.00;102511.13;5092697;28;20070;-49
2023/01/03 06:21:51;;;;;;;11.88;5.03;;;;;;;6.86;100.00;102506.34;5092495;28;20032;-50
2023/01/03 06:24:19;;;;;;;11.57;5.35;;;;;;;6.90;100.00;102504.88;5092521;28;20048;-49
2023/01/03 06:26:46;;;;;;;10.73;5.47;;;;;;;6.91;100.00;102493.00;4384730;28;10000532;-49
2023/01/03 06:29:14;;;;;;;11.60;5.70;;;;;;;6.86;100.00;102484.66;5077853;28;20355;-47
2023/01/03 06:31:42;;;;;;;9.90;5.10;;;;;;;6.79;100.00;102482.75;5083185;28;20036;-47
2023/01/03 06:34:09;;;;;;;12.05;5.13;;;;;;;6.80;100.00;102483.56;5089761;28;20036;-47
2023/01/03 06:36:37;;;;;;;11.30;5.55;;;;;;;6.85;100.00;102485.69;5090158;28;20093;-47
2023/01/03 06:39:05;;;;;;;9.95;5.45;;;;;;;6.84;100.00;102492.97;5088136;28;20036;-46
2023/01/03 06:41:33;;;;;;;9.45;5.15;;;;;;;6.81;100.00;102485.25;5089632;28;20051;-48
2023/01/03 06:44:00;;;;;;;9.43;5.50;;;;;;;6.82;100.00;102474.19;5091206;28;20418;-48
2023/01/03 06:55:00;;;;;;;10.80;5.38;;;;;;;6.77;100.00;102470.44;5039650;28;20057;-48
2023/01/03 06:57:28;;;;;;;11.25;5.45;;;;;;;6.69;100.00;102479.56;5085899;28;20041;-50
2023/01/03 06:59:56;;;;;;;11.52;5.60;;;;;;;6.64;100.00;102463.09;5087443;28;20488;-51
2023/01/03 07:02:23;;;;;;;9.90;5.18;;;;;;;6.66;100.00;102479.97;5088008;28;20740;-49
2023/01/03 07:04:51;;;;;;;12.25;5.65;;;;;;;6.70;100.00;102483.94;5089268;28;20036;-50
2023/01/03 07:07:19;;;;;;;8.93;5.43;;;;;;;6.74;100.00;102477.09;5087183;28;20162;-47
2023/01/03 07:09:47;;;;;;;9.43;5.22;;;;;;;6.76;100.00;102480.44;5087125;28;20035;-50
2023/01/03 07:15:04;;;;;;;10.63;5.72;;;;;;;6.81;100.00;102485.25;5090271;28;20067;-47
2023/01/03 07:17:32;;;;;;;11.07;5.63;;;;;;;6.83;100.00;102484.03;5067624;28;20418;-49
2023/01/03 07:20:00;;;;;;;12.73;5.75;;;;;;;6.80;100.00;102467.31;5078635;28;20105;-48
2023/01/03 07:22:27;;;;;;;11.70;5.70;;;;;;;6.67;100.00;102462.69;5092786;28;20044;-48
2023/01/03 07:24:55;;;;;;;11.93;5.70;;;;;;;6.62;100.00;102473.28;5092978;28;20032;-47
2023/01/03 07:27:23;;;;;;;10.63;5.47;;;;;;;6.58;100.00;102466.59;5092596;28;20047;-47
2023/01/03 07:29:50;;;;;;;11.45;5.40;;;;;;;6.58;100.00;102488.25;5093314;28;20040;-47
2023/01/03 07:32:18;;;;;;;10.95;5.53;;;;;;;6.62;100.00;102492.25;5095736;28;20040;-48
2023/01/03 07:34:45;;;;;;;9.55;5.20;;;;;;;6.66;100.00;102487.25;5095010;28;20036;-47
2023/01/03 07:37:13;;;;;;;11.10;5.22;;;;;;;6.72;100.00;102495.41;5097351;28;20039;-47
2023/01/03 07:39:41;;;;;;;11.48;5.30;;;;;;;6.77;100.00;102521.91;5098509;28;20094;-46
2023/01/03 07:44:54;;;;;;;10.48;5.40;;;;;;;6.86;100.00;102518.00;5098241;28;20034;-50
2023/01/03 07:47:22;;;;;;;11.52;5.40;;;;;;;6.83;100.00;102515.66;5095983;28;20084;-50
2023/01/03 07:49:49;;;;;;;11.07;5.22;;;;;;;6.79;100.00;102512.53;5097180;28;20035;-48
2023/01/03 07:52:17;;;;;;;10.45;5.55;;;;;;;6.78;100.00;102505.47;5094144;28;20051;-47
2023/01/03 07:54:45;;;;;;;9.70;5.57;;;;;;;6.75;100.00;102503.13;5093698;28;20040;-48
2023/01/03 07:57:14;;;;;;;10.27;4.88;;;;;;;6.87;100.00;102502.56;5096028;28;20047;-47
2023/01/03 07:59:41;;;;;;;10.82;4.90;;;;;;;6.81;100.00;102496.94;5095260;28;20034;-52
2023/01/03 08:02:09;;;;;;;9.50;4.85;;;;;;;6.85;100.00;102494.63;5095484;28;20052;-47
2023/01/03 08:04:37;;;;;;;10.60;5.10;;;;;;;6.82;100.00;102512.13;5097425;28;20048;-49
2023/01/03 08:07:05;;;;;;;9.00;5.00;;;;;;;6.83;100.00;102513.81;5096629;28;20063;-49
2023/01/03 08:15:05;;;;;;;;;;;;;;;7.28;100.00;102513.34;5093471;28;20043;-48
2023/01/03 08:17:32;;;;;;;7.88;3.35;;;;;;;7.41;100.00;102520.69;5096592;28;19920;-48
2023/01/03 08:20:00;;;;;;;6.75;3.25;;;;;;;7.42;100.00;102525.06;5081870;28;20121;-46
2023/01/03 08:22:28;;;;;;;9.98;4.13;;;;;;;7.31;100.00;102515.66;5077243;28;20063;-49
2023/01/03 08:24:56;;;;;;;8.10;4.30;;;;;;;7.27;100.00;102524.41;5094030;28;20046;-48
2023/01/03 08:27:23;;;;;;;10.50;4.45;;;;;;;7.38;100.00;102531.94;5095571;28;20109;-49
2023/01/03 08:29:51;;;;;;;13.40;6.30;;;;;;;7.32;100.00;102536.31;5094665;28;20115;-46
2023/01/03 08:32:19;;;;;;;11.80;4.53;;;;;;;7.29;100.00;102533.16;5094650;28;20047;-47
2023/01/03 08:34:47;;;;;;;9.20;4.68;;;;;;;7.25;100.00;102530.84;5087300;28;20402;-48
2023/01/03 08:37:15;;;;;;;12.75;5.63;;;;;;;7.32;100.00;102533.59;5093717;28;20032;-44
2023/01/03 08:39:53;;;;;;;10.25;4.25;;;;;;;7.44;100.00;102536.56;5093835;28;20093;-45
2023/01/03 08:42:22;;;;;;;10.25;4.47;;;;;;;7.44;100.00;102539.25;5057938;28;20040;-48
2023/01/03 08:44:54;;;;;;;10.57;4.90;;;;;;;7.39;100.00;102544.47;5101100;28;20048;-47
2023/01/03 08:47:22;;;;;;;13.32;5.50;;;;;;;7.35;100.00;102548.63;5109253;28;20147;-47
2023/01/03 08:49:49;;;;;;;16.38;6.80;;;;;;;7.44;100.00;102550.13;5094637;28;20044;-48
2023/01/03 08:52:17;;;;;;;17.90;6.57;;;;;;;7.39;100.00;102544.47;5094070;28;20390;-49
2023/01/03 08:54:45;;;;;;;10.93;5.72;;;;;;;7.37;100.00;102549.25;5094308;28;20040;-47
2023/01/03 08:57:12;;;;;;;15.20;6.57;;;;;;;7.45;100.00;102549.06;5094226;28;20097;-47
2023/01/03 08:59:40;;;;;;;11.30;5.53;;;;;;;7.47;100.00;102552.41;5094112;28;20051;-45
2023/01/03 09:02:07;;;;;;;15.00;6.03;;;;;;;7.53;100.00;102562.44;5094480;28;20043;-49
2023/01/03 09:04:35;;;;;;;11.20;6.72;;;;;;;7.33;100.00;102556.13;5094200;28;20062;-48
2023/01/03 09:07:04;;;;;;;13.93;7.00;;;;;;;7.20;100.00;102548.78;5072828;28;20036;-48
2023/01/03 09:09:31;;;;;;;11.35;6.28;;;;;;;7.14;100.00;102547.69;5092401;28;20036;-47
2023/01/03 09:11:59;;;;;;;11.45;6.50;;;;;;;7.11;100.00;102556.25;5093999;28;20370;-47
2023/01/03 09:14:29;;;;;;;12.50;6.53;;;;;;;7.13;100.00;102556.88;5094151;28;20039;-48
2023/01/03 09:16:57;;;;;;;21.15;7.70;;;;;;;7.19;100.00;102558.81;5093854;28;20040;-46
2023/01/03 09:19:25;;;;;;;24.63;8.90;;;;;;;7.27;100.00;102555.06;5093962;28;20117;-48
2023/01/03 09:21:52;;;;;;;18.00;7.50;;;;;;;7.50;100.00;102551.16;5093403;28;20044;-47
2023/01/03 09:24:20;;;;;;;23.50;9.18;;;;;;;7.52;100.00;102565.34;5094172;28;20101;-48
2023/01/03 09:26:47;;;;;;;24.33;7.85;;;;;;;7.65;100.00;102566.22;5093732;28;20118;-46
2023/01/03 09:29:21;;;;;;;21.00;7.57;;;;;;;7.80;100.00;102562.50;5093921;28;20036;-47
2023/01/03 09:31:49;;;;;;;18.88;7.78;;;;;;;7.72;100.00;102565.41;5092431;28;20051;-48
2023/01/03 09:34:18;;;;;;;16.63;6.35;;;;;;;7.73;100.00;102567.09;5093747;28;20044;-45
2023/01/03 09:36:46;;;;;;;17.85;7.13;;;;;;;7.63;100.00;102562.88;5091059;28;20071;-48
2023/01/03 09:39:13;;;;;;;17.52;6.60;;;;;;;7.72;100.00;102559.97;5093792;28;20040;-47
2023/01/03 09:41:42;;;;;;;18.15;6.88;;;;;;;7.88;100.00;102551.44;5093664;28;20214;-48
2023/01/03 09:44:10;;;;;;;17.25;6.88;;;;;;;7.83;100.00;102556.66;5091499;28;20052;-45
2023/01/03 09:46:37;;;;;;;16.00;7.20;;;;;;;7.71;100.00;102552.88;5090189;28;20044;-48
2023/01/03 09:49:06;;;;;;;13.93;6.82;;;;;;;7.69;100.00;102551.19;5092599;28;20051;-45
2023/01/03 10:03:55;;;;;;;12.57;6.82;;;;;;;7.75;100.00;102559.56;5087928;28;20044;-48
2023/01/03 10:06:43;;;;;;;15.43;7.00;;;;;;;7.81;100.00;102553.31;5084169;28;20047;-46
2023/01/03 10:09:32;;;;;;;12.88;5.88;;;;;;;7.76;100.00;102558.53;5092496;28;20445;-48
2023/01/03 10:12:09;;;;;;;12.65;6.68;;;;;;;7.76;100.00;102558.53;5092620;28;20044;-45
2023/01/03 10:14:39;;;;;;;18.25;7.40;;;;;;;7.77;100.00;102554.75;5106913;28;20059;-48
2023/01/03 10:17:36;;;;;;;22.55;8.43;;;;;;;7.77;100.00;102544.75;5091362;28;20040;-50
2023/01/03 10:20:24;;;;;;;17.58;7.60;;;;;;;7.80;100.00;102552.47;5088960;28;20059;-47
2023/01/03 10:22:59;;;;;;;21.57;8.30;;;;;;;7.77;100.00;102565.59;5091800;28;20126;-48
2023/01/03 10:25:28;;;;;;;20.48;8.00;;;;;;;7.75;100.00;102565.00;5093706;28;20046;-48
2023/01/03 10:28:03;;;;;;;24.85;8.73;;;;;;;7.72;100.00;102570.81;5058487;28;20055;-47
2023/01/03 10:30:39;;;;;;;33.20;10.98;;;;;;;7.79;100.00;102563.53;5062488;28;20085;-46
2023/01/03 10:33:39;;;;;;;25.42;9.63;;;;;;;7.81;100.00;102551.41;5090210;28;20056;-48
2023/01/03 10:36:08;;;;;;;29.25;9.23;;;;;;;8.33;100.00;102551.66;5093070;28;20040;-49
2023/01/03 10:38:37;;;;;;;29.17;9.73;;;;;;;8.35;100.00;102548.75;5087717;28;20048;-46
2023/01/03 10:41:41;;;;;;;20.08;7.97;;;;;;;8.48;100.00;102546.84;5092190;28;20044;-46
2023/01/03 10:44:28;;;;;;;18.33;7.25;;;;;;;8.41;100.00;102551.47;5093283;28;20046;-48
2023/01/03 10:47:18;;;;;;;13.85;6.97;;;;;;;7.93;100.00;102539.97;5092391;28;20048;-47
2023/01/03 10:49:46;;;;;;;15.32;7.32;;;;;;;7.71;100.00;102536.59;5096031;28;20114;-48
2023/01/03 10:52:18;;;;;;;10.95;6.13;;;;;;;7.65;100.00;102538.28;5096424;28;20062;-47
2023/01/03 10:55:10;;;;;;;11.75;4.85;;;;;;;7.75;100.00;102543.31;5095487;28;20374;-49
2023/01/03 10:57:43;;;;;;;17.88;6.75;;;;;;;8.02;100.00;102538.72;5095206;28;20044;-46
2023/01/03 11:00:25;;;;;;;25.85;9.90;;;;;;;8.22;100.00;102544.97;5089337;28;20056;-49
2023/01/03 11:02:54;;;;;;;27.77;10.35;;;;;;;8.24;100.00;102536.63;5091610;28;20519;-46
2023/01/03 11:05:24;;;;;;;30.73;10.75;;;;;;;8.40;100.00;102530.78;5094973;28;20119;-47
2023/01/03 11:08:02;;;;;;;10.07;5.45;;;;;;;8.20;100.00;102529.94;5095755;28;20036;-48
2023/01/03 11:10:37;;;;;;;13.98;6.47;;;;;;;8.10;100.00;102535.78;5092492;28;20044;-48
2023/01/03 11:13:25;;;;;;;17.23;7.10;;;;;;;8.15;100.00;102538.69;5094657;28;20044;-47
2023/01/03 11:15:55;;;;;;;24.15;8.07;;;;;;;8.21;100.00;102537.03;5108719;28;20036;-48
2023/01/03 11:18:25;;;;;;;46.88;12.10;;;;;;;8.41;100.00;102540.59;5094451;28;20578;-49
2023/01/03 11:21:06;;;;;;;18.52;6.60;;;;;;;8.39;100.00;102544.53;5095420;28;20478;-50
2023/01/03 11:23:48;;;;;;;18.70;7.57;;;;;;;8.56;100.00;102531.38;5101096;28;20043;-47
2023/01/03 11:26:49;;;;;;;28.63;8.32;;;;;;;8.64;100.00;102525.72;5096498;28;20555;-46
2023/01/03 11:29:51;;;;;;;42.45;11.20;;;;;;;8.72;100.00;102528.19;5096294;28;20410;-49
2023/01/03 11:32:40;;;;;;;26.60;8.05;;;;;;;8.48;100.00;102519.69;5096562;28;20047;-45
2023/01/03 11:35:35;;;;;;;35.38;10.45;;;;;;;8.74;100.00;102526.09;5094641;28;20101;-49
2023/01/03 11:38:11;;;;;;;21.47;7.47;;;;;;;8.79;100.00;102526.28;5095831;28;20040;-49
2023/01/03 11:40:44;;;;;;;17.80;6.72;;;;;;;8.58;100.00;102521.13;5078165;28;20055;-52
2023/01/03 11:43:38;;;;;;;12.93;5.22;;;;;;;8.32;100.00;102525.53;5066213;28;20045;-48
2023/01/03 11:46:17;;;;;;;13.02;5.70;;;;;;;8.21;100.00;102518.03;5083167;28;20044;-48
2023/01/03 11:48:58;;;;;;;10.43;5.38;;;;;;;8.25;100.00;102506.53;5094267;28;20070;-47
2023/01/03 11:51:32;;;;;;;12.57;5.78;;;;;;;8.17;100.00;102514.91;5094816;28;20044;-48
2023/01/03 11:54:11;;;;;;;15.50;6.10;;;;;;;8.16;100.00;102515.13;5095419;28;20097;-47
2023/01/03 11:56:46;;;;;;;10.57;5.10;;;;;;;8.07;100.00;102520.75;5094292;28;20039;-48
2023/01/03 11:59:20;;;;;;;11.50;5.60;;;;;;;8.15;100.00;102510.72;5093689;28;20062;-50
2023/01/03 12:02:00;;;;;;;13.95;5.43;;;;;;;8.09;100.00;102505.09;5096207;28;20066;-49
2023/01/03 12:04:33;;;;;;;13.05;5.25;;;;;;;8.07;100.00;102498.19;5095527;28;20087;-48
2023/01/03 12:07:14;;;;;;;15.57;5.53;;;;;;;8.06;100.00;102497.38;5093680;28;20474;-48
2023/01/03 12:10:11;;;;;;;14.65;5.43;;;;;;;8.12;100.00;102490.25;5082968;28;20172;-50
2023/01/03 12:12:56;;;;;;;;;;;;;;;8.22;100.00;102487.13;5095601;28;20086;-48
2023/01/03 12:15:45;;;;;;;14.13;5.50;;;;;;;8.14;100.00;102488.16;5094937;28;19965;-49
2023/01/03 12:18:48;;;;;;;10.95;5.22;;;;;;;8.10;100.00;102487.78;5079037;28;20040;-51
2023/01/03 12:21:34;;;;;;;12.77;5.68;;;;;;;8.27;100.00;102492.75;5095014;28;20044;-46
2023/01/03 12:24:05;;;;;;;15.95;5.75;;;;;;;8.32;100.00;102488.38;5081776;28;20116;-48
2023/01/03 12:26:35;;;;;;;9.85;5.07;;;;;;;8.21;100.00;102489.00;5094708;28;20483;-51
2023/01/03 12:29:20;;;;;;;12.60;5.65;;;;;;;8.21;100.00;102474.59;5093940;28;20036;-49
2023/01/03 12:32:01;;;;;;;10.57;5.32;;;;;;;8.23;100.00;102477.94;5079517;28;20043;-51
2023/01/03 12:34:31;;;;;;;11.93;4.90;;;;;;;8.24;100.00;102472.28;5093500;28;20044;-49
2023/01/03 12:37:04;;;;;;;10.68;5.22;;;;;;;8.38;100.00;102472.25;5093108;28;20040;-46
2023/01/03 12:40:01;;;;;;;10.13;5.03;;;;;;;8.39;100.00;102468.47;5094964;28;20414;-48
2023/01/03 12:42:37;;;;;;;17.40;6.85;;;;;;;8.64;100.00;102477.66;5068966;28;20072;-49
2023/01/03 12:45:10;;;;;;;8.65;4.03;;;;;;;8.58;100.00;102461.34;5093350;28;20046;-47
2023/01/03 12:47:42;;;;;;;13.15;5.70;;;;;;;8.64;100.00;102474.09;5092794;28;20044;-48
2023/01/03 12:50:26;;;;;;;11.18;4.25;;;;;;;8.83;100.00;102464.22;5094673;28;20093;-50
2023/01/03 12:53:01;;;;;;;12.13;4.97;;;;;;;8.84;100.00;102461.25;5082650;28;20509;-49